Jamestown Regional Airport
KJMS : rendu visible

Aérodrome :











RETROUVEZ-NOUS SUR...

 
LOGIN :

S'inscrire | Disclaimer

   EN    FR    IT 

 









Légende :    VFR   VFR Marginal   IFR   IFR Intensif   IFR Très Intensif
Visi : 
Plafond : 
>= 8 km
>= 3000ft
5 à 8 km
1000 à 3000 ft
1500m à 5 km
500 à 1000 ft
800 à 1500m
200 à 500 ft
< 800m
< 200 ft
Symboles :   Orages  Brouillard  Fortes neiges  Fortes précipitations  Vent > 20 kt






- Altitude de l'aérodrome : 1500 ft
- Code IATA : JMS


KJMS - Jamestown Regional

DERNIER METAR :
  • 281256Z AUTO 30010KT 10SM CLR 14/07 A3008 RMK AO2 SLP186 T01390067

METARs EXPIRÉS :
  • 281156Z AUTO 31008KT 10SM CLR 12/06 A3008 RMK AO2 SLP186 T01220061 10133 20106 53015
  • 281056Z AUTO 30010KT 10SM CLR 11/07 A3007 RMK AO2 SLP181 T01110067

TAF KJMS
Valide du 28 à 12h jusqu'au 29 à 12h UTC


281130Z 2812/2912 30010KT P6SM SKC
FM281400 30017G26KT P6SM SKC
FM282100 33021G30KT P6SM BKN080
FM290200 34013KT P6SM SCT180
FIR KZMP / Amérique du Nord



MET'MAP, la Météo Aéronautique d'un coup d'oeil ! - Copyright ORBIFLY Décembre 2007 - Disclaimer

ORBIFLY MET'MAP TEAM :

Programmation & Développement : Alexandra Zaïnal
Sur une idée originale de : Baudouin d'Aumeries
Assistance à la programmation : Marc-Olivier Méhu
Soutien technique & logistique : Manuel Goepfert

Contact : metmap@orbifly.com




SOURCES & CREDITS :

   NOAA       Earth
Advisory